sensor_id;sensor_type;location;lat;lon;timestamp;pressure;altitude;pressure_sealevel;temperature;humidity
65880;BME280;52661;51.364;6.054;2023-06-24T00:01:24;102054.06;;;20.77;100.00
65880;BME280;52661;51.364;6.054;2023-06-24T00:03:49;102051.44;;;20.90;100.00
65880;BME280;52661;51.364;6.054;2023-06-24T00:06:21;102044.44;;;20.85;100.00
65880;BME280;52661;51.364;6.054;2023-06-24T00:08:48;102049.75;;;20.76;100.00
65880;BME280;52661;51.364;6.054;2023-06-24T00:11:14;102047.34;;;20.78;100.00
65880;BME280;52661;51.364;6.054;2023-06-24T00:13:40;102056.47;;;20.75;100.00
65880;BME280;52661;51.364;6.054;2023-06-24T00:16:06;102050.44;;;20.80;100.00
65880;BME280;52661;51.364;6.054;2023-06-24T00:18:32;102048.19;;;20.75;100.00
65880;BME280;52661;51.364;6.054;2023-06-24T00:20:58;102054.34;;;20.83;100.00
65880;BME280;52661;51.364;6.054;2023-06-24T00:23:24;102055.69;;;20.94;100.00
65880;BME280;52661;51.364;6.054;2023-06-24T00:25:52;102052.06;;;20.97;100.00
65880;BME280;52661;51.364;6.054;2023-06-24T00:28:19;102047.59;;;21.03;100.00
65880;BME280;52661;51.364;6.054;2023-06-24T00:30:45;102050.22;;;20.91;100.00
65880;BME280;52661;51.364;6.054;2023-06-24T00:33:10;102048.63;;;20.74;100.00
65880;BME280;52661;51.364;6.054;2023-06-24T00:35:38;102049.69;;;20.80;100.00
65880;BME280;52661;51.364;6.054;2023-06-24T00:38:04;102051.22;;;20.81;100.00
65880;BME280;52661;51.364;6.054;2023-06-24T00:40:29;102055.22;;;20.80;100.00
65880;BME280;52661;51.364;6.054;2023-06-24T00:42:55;102052.16;;;20.74;100.00
65880;BME280;52661;51.364;6.054;2023-06-24T00:45:22;102048.13;;;20.79;100.00
65880;BME280;52661;51.364;6.054;2023-06-24T00:47:47;102045.00;;;20.77;100.00
65880;BME280;52661;51.364;6.054;2023-06-24T00:50:14;102044.69;;;20.91;100.00
65880;BME280;52661;51.364;6.054;2023-06-24T00:52:40;102047.91;;;20.89;100.00
65880;BME280;52661;51.364;6.054;2023-06-24T00:55:07;102041.63;;;20.69;100.00
65880;BME280;52661;51.364;6.054;2023-06-24T00:57:33;102042.28;;;20.57;100.00
65880;BME280;52661;51.364;6.054;2023-06-24T01:00:02;102041.34;;;20.44;100.00
65880;BME280;52661;51.364;6.054;2023-06-24T01:02:31;102040.66;;;20.40;100.00
65880;BME280;52661;51.364;6.054;2023-06-24T01:04:57;102041.41;;;20.40;100.00
65880;BME280;52661;51.364;6.054;2023-06-24T01:07:23;102046.03;;;20.47;100.00
65880;BME280;52661;51.364;6.054;2023-06-24T01:09:48;102048.19;;;20.55;100.00
65880;BME280;52661;51.364;6.054;2023-06-24T01:12:14;102050.09;;;20.58;100.00
65880;BME280;52661;51.364;6.054;2023-06-24T01:14:39;102047.63;;;20.64;100.00
65880;BME280;52661;51.364;6.054;2023-06-24T01:17:44;102041.75;;;20.62;100.00
65880;BME280;52661;51.364;6.054;2023-06-24T01:20:25;102044.09;;;20.63;100.00
65880;BME280;52661;51.364;6.054;2023-06-24T01:26:20;102033.97;;;20.37;100.00
65880;BME280;52661;51.364;6.054;2023-06-24T01:29:07;102035.47;;;20.19;100.00
65880;BME280;52661;51.364;6.054;2023-06-24T01:31:41;102035.00;;;20.04;100.00
65880;BME280;52661;51.364;6.054;2023-06-24T01:37:12;102031.66;;;20.12;100.00
65880;BME280;52661;51.364;6.054;2023-06-24T01:39:46;102036.47;;;20.08;100.00
65880;BME280;52661;51.364;6.054;2023-06-24T01:42:14;102040.72;;;20.13;100.00
65880;BME280;52661;51.364;6.054;2023-06-24T01:44:43;102042.63;;;20.16;100.00
65880;BME280;52661;51.364;6.054;2023-06-24T01:47:09;102041.25;;;20.28;100.00
65880;BME280;52661;51.364;6.054;2023-06-24T01:49:39;102046.66;;;20.35;100.00
65880;BME280;52661;51.364;6.054;2023-06-24T01:52:07;102035.47;;;20.42;100.00
65880;BME280;52661;51.364;6.054;2023-06-24T01:54:34;102045.94;;;20.31;100.00
65880;BME280;52661;51.364;6.054;2023-06-24T01:57:02;102044.31;;;20.10;100.00
65880;BME280;52661;51.364;6.054;2023-06-24T01:59:31;102040.50;;;20.04;100.00
65880;BME280;52661;51.364;6.054;2023-06-24T02:01:57;102039.78;;;20.00;100.00
65880;BME280;52661;51.364;6.054;2023-06-24T02:04:24;102038.41;;;19.88;100.00
65880;BME280;52661;51.364;6.054;2023-06-24T02:06:51;102033.75;;;19.85;100.00
65880;BME280;52661;51.364;6.054;2023-06-24T02:09:19;102037.69;;;20.07;100.00
65880;BME280;52661;51.364;6.054;2023-06-24T02:11:45;102025.41;;;19.89;100.00
65880;BME280;52661;51.364;6.054;2023-06-24T02:14:12;102020.97;;;19.95;100.00
65880;BME280;52661;51.364;6.054;2023-06-24T02:16:40;102026.75;;;20.00;100.00
65880;BME280;52661;51.364;6.054;2023-06-24T02:19:09;102021.56;;;20.06;100.00
65880;BME280;52661;51.364;6.054;2023-06-24T02:21:39;102018.75;;;20.09;100.00
65880;BME280;52661;51.364;6.054;2023-06-24T02:24:06;102027.72;;;20.13;100.00
65880;BME280;52661;51.364;6.054;2023-06-24T02:26:32;102019.91;;;19.89;100.00
65880;BME280;52661;51.364;6.054;2023-06-24T02:28:59;102029.31;;;19.91;100.00
65880;BME280;52661;51.364;6.054;2023-06-24T02:31:25;102024.97;;;19.90;100.00
65880;BME280;52661;51.364;6.054;2023-06-24T02:33:50;102026.06;;;19.96;100.00
65880;BME280;52661;51.364;6.054;2023-06-24T02:36:15;102022.34;;;19.83;100.00
65880;BME280;52661;51.364;6.054;2023-06-24T02:38:41;102021.38;;;19.93;100.00
65880;BME280;52661;51.364;6.054;2023-06-24T02:41:06;102020.91;;;19.75;100.00
65880;BME280;52661;51.364;6.054;2023-06-24T02:43:32;102026.59;;;19.64;100.00
65880;BME280;52661;51.364;6.054;2023-06-24T02:45:59;102019.47;;;19.44;100.00
65880;BME280;52661;51.364;6.054;2023-06-24T02:48:28;102021.88;;;19.42;100.00
65880;BME280;52661;51.364;6.054;2023-06-24T02:50:55;102030.25;;;19.58;100.00
65880;BME280;52661;51.364;6.054;2023-06-24T02:53:20;102034.94;;;19.61;100.00
65880;BME280;52661;51.364;6.054;2023-06-24T02:55:46;102031.88;;;19.55;100.00
65880;BME280;52661;51.364;6.054;2023-06-24T02:58:13;102032.28;;;19.54;100.00
65880;BME280;52661;51.364;6.054;2023-06-24T03:00:39;102032.06;;;19.45;100.00
65880;BME280;52661;51.364;6.054;2023-06-24T03:03:05;102029.84;;;19.33;100.00
65880;BME280;52661;51.364;6.054;2023-06-24T03:05:32;102032.13;;;19.38;100.00
65880;BME280;52661;51.364;6.054;2023-06-24T03:08:00;102038.84;;;19.37;100.00
65880;BME280;52661;51.364;6.054;2023-06-24T03:10:26;102030.94;;;19.39;100.00
65880;BME280;52661;51.364;6.054;2023-06-24T03:12:51;102028.28;;;19.32;100.00
65880;BME280;52661;51.364;6.054;2023-06-24T03:15:17;102037.75;;;19.31;100.00
65880;BME280;52661;51.364;6.054;2023-06-24T03:17:43;102044.44;;;19.30;100.00
65880;BME280;52661;51.364;6.054;2023-06-24T03:20:09;102044.84;;;19.28;100.00
65880;BME280;52661;51.364;6.054;2023-06-24T03:22:35;102041.00;;;19.22;100.00
65880;BME280;52661;51.364;6.054;2023-06-24T03:25:00;102040.19;;;19.25;100.00
65880;BME280;52661;51.364;6.054;2023-06-24T03:27:26;102037.75;;;19.31;100.00
65880;BME280;52661;51.364;6.054;2023-06-24T03:29:51;102043.75;;;19.22;100.00
65880;BME280;52661;51.364;6.054;2023-06-24T03:32:16;102045.63;;;19.29;100.00
65880;BME280;52661;51.364;6.054;2023-06-24T03:34:42;102050.78;;;19.27;100.00
65880;BME280;52661;51.364;6.054;2023-06-24T03:37:07;102047.25;;;19.26;100.00
65880;BME280;52661;51.364;6.054;2023-06-24T03:39:32;102041.59;;;19.37;100.00
65880;BME280;52661;51.364;6.054;2023-06-24T03:41:58;102051.88;;;19.33;100.00
65880;BME280;52661;51.364;6.054;2023-06-24T03:44:23;102055.41;;;19.33;100.00
65880;BME280;52661;51.364;6.054;2023-06-24T03:46:48;102059.22;;;19.39;100.00
65880;BME280;52661;51.364;6.054;2023-06-24T03:49:14;102055.47;;;19.30;100.00
65880;BME280;52661;51.364;6.054;2023-06-24T03:51:39;102062.00;;;19.39;100.00
65880;BME280;52661;51.364;6.054;2023-06-24T03:54:04;102057.38;;;19.33;100.00
65880;BME280;52661;51.364;6.054;2023-06-24T03:56:30;102054.66;;;19.29;100.00
65880;BME280;52661;51.364;6.054;2023-06-24T03:58:55;102059.28;;;19.36;100.00
65880;BME280;52661;51.364;6.054;2023-06-24T04:01:20;102051.53;;;19.31;100.00
65880;BME280;52661;51.364;6.054;2023-06-24T04:03:46;102057.47;;;19.26;100.00
65880;BME280;52661;51.364;6.054;2023-06-24T04:06:12;102056.41;;;19.20;100.00
65880;BME280;52661;51.364;6.054;2023-06-24T04:08:37;102052.06;;;19.18;100.00
65880;BME280;52661;51.364;6.054;2023-06-24T04:11:05;102066.16;;;19.24;100.00
65880;BME280;52661;51.364;6.054;2023-06-24T04:13:35;102063.91;;;19.15;100.00
65880;BME280;52661;51.364;6.054;2023-06-24T04:16:00;102068.59;;;19.18;100.00
65880;BME280;52661;51.364;6.054;2023-06-24T04:18:26;102075.66;;;19.20;100.00
65880;BME280;52661;51.364;6.054;2023-06-24T04:20:51;102083.09;;;19.23;100.00
65880;BME280;52661;51.364;6.054;2023-06-24T04:23:16;102080.09;;;19.10;100.00
65880;BME280;52661;51.364;6.054;2023-06-24T04:25:42;102079.00;;;19.04;100.00
65880;BME280;52661;51.364;6.054;2023-06-24T04:28:08;102075.91;;;19.02;100.00
65880;BME280;52661;51.364;6.054;2023-06-24T04:30:33;102075.06;;;19.05;100.00
65880;BME280;52661;51.364;6.054;2023-06-24T04:33:00;102083.69;;;19.07;100.00
65880;BME280;52661;51.364;6.054;2023-06-24T04:35:26;102079.78;;;19.04;100.00
65880;BME280;52661;51.364;6.054;2023-06-24T04:37:51;102082.19;;;19.02;100.00
65880;BME280;52661;51.364;6.054;2023-06-24T04:40:17;102085.66;;;19.06;100.00
65880;BME280;52661;51.364;6.054;2023-06-24T04:42:44;102081.75;;;19.04;100.00
65880;BME280;52661;51.364;6.054;2023-06-24T04:45:09;102061.38;;;19.01;100.00
65880;BME280;52661;51.364;6.054;2023-06-24T04:47:35;102064.50;;;19.00;100.00
65880;BME280;52661;51.364;6.054;2023-06-24T04:50:01;102067.22;;;19.03;100.00
65880;BME280;52661;51.364;6.054;2023-06-24T04:52:26;102065.59;;;19.09;100.00
65880;BME280;52661;51.364;6.054;2023-06-24T04:54:52;102071.50;;;19.08;100.00
65880;BME280;52661;51.364;6.054;2023-06-24T04:57:26;102064.28;;;19.17;100.00
65880;BME280;52661;51.364;6.054;2023-06-24T04:59:52;102067.34;;;19.23;100.00
65880;BME280;52661;51.364;6.054;2023-06-24T05:02:17;102071.19;;;19.29;100.00
65880;BME280;52661;51.364;6.054;2023-06-24T05:04:43;102079.41;;;19.33;100.00
65880;BME280;52661;51.364;6.054;2023-06-24T05:07:08;102081.25;;;19.39;100.00
65880;BME280;52661;51.364;6.054;2023-06-24T05:09:33;102082.34;;;19.49;100.00
65880;BME280;52661;51.364;6.054;2023-06-24T05:12:03;102079.47;;;19.56;100.00
65880;BME280;52661;51.364;6.054;2023-06-24T05:14:28;102076.28;;;19.57;100.00
65880;BME280;52661;51.364;6.054;2023-06-24T05:16:53;102079.84;;;19.58;100.00
65880;BME280;52661;51.364;6.054;2023-06-24T05:19:19;102081.75;;;19.61;100.00
65880;BME280;52661;51.364;6.054;2023-06-24T05:21:44;102078.19;;;19.64;100.00
65880;BME280;52661;51.364;6.054;2023-06-24T05:24:10;102082.41;;;19.69;100.00
65880;BME280;52661;51.364;6.054;2023-06-24T05:26:35;102092.25;;;19.70;100.00
65880;BME280;52661;51.364;6.054;2023-06-24T05:29:00;102094.16;;;19.73;100.00
65880;BME280;52661;51.364;6.054;2023-06-24T05:31:26;102085.13;;;19.72;100.00
65880;BME280;52661;51.364;6.054;2023-06-24T05:33:51;102094.84;;;19.80;100.00
65880;BME280;52661;51.364;6.054;2023-06-24T05:36:16;102092.75;;;19.88;100.00
65880;BME280;52661;51.364;6.054;2023-06-24T05:38:41;102087.59;;;19.90;100.00
65880;BME280;52661;51.364;6.054;2023-06-24T05:41:07;102091.00;;;19.97;100.00
65880;BME280;52661;51.364;6.054;2023-06-24T05:43:32;102083.50;;;19.98;100.00
65880;BME280;52661;51.364;6.054;2023-06-24T05:45:57;102084.63;;;20.00;100.00
65880;BME280;52661;51.364;6.054;2023-06-24T05:48:23;102095.66;;;20.00;100.00
65880;BME280;52661;51.364;6.054;2023-06-24T05:50:48;102087.41;;;20.00;100.00
65880;BME280;52661;51.364;6.054;2023-06-24T05:53:13;102093.28;;;20.02;100.00
65880;BME280;52661;51.364;6.054;2023-06-24T05:55:39;102096.81;;;20.03;100.00
65880;BME280;52661;51.364;6.054;2023-06-24T05:58:04;102101.31;;;20.17;100.00
65880;BME280;52661;51.364;6.054;2023-06-24T06:00:29;102101.31;;;20.17;100.00
65880;BME280;52661;51.364;6.054;2023-06-24T06:02:55;102104.72;;;20.24;100.00
65880;BME280;52661;51.364;6.054;2023-06-24T06:05:20;102101.97;;;20.24;100.00
65880;BME280;52661;51.364;6.054;2023-06-24T06:07:45;102104.69;;;20.28;100.00
65880;BME280;52661;51.364;6.054;2023-06-24T06:10:10;102104.22;;;20.33;100.00
65880;BME280;52661;51.364;6.054;2023-06-24T06:12:36;102103.06;;;20.30;100.00
65880;BME280;52661;51.364;6.054;2023-06-24T06:15:01;102109.66;;;20.36;100.00
65880;BME280;52661;51.364;6.054;2023-06-24T06:17:27;102104.84;;;20.40;100.00
65880;BME280;52661;51.364;6.054;2023-06-24T06:19:52;102107.03;;;20.49;100.00
65880;BME280;52661;51.364;6.054;2023-06-24T06:22:17;102100.81;;;20.45;100.00
65880;BME280;52661;51.364;6.054;2023-06-24T06:24:43;102100.53;;;20.39;100.00
65880;BME280;52661;51.364;6.054;2023-06-24T06:27:12;102103.56;;;20.45;100.00
65880;BME280;52661;51.364;6.054;2023-06-24T06:29:38;102100.94;;;20.38;100.00
65880;BME280;52661;51.364;6.054;2023-06-24T06:32:03;102110.19;;;20.51;100.00
65880;BME280;52661;51.364;6.054;2023-06-24T06:34:29;102115.97;;;20.56;100.00
65880;BME280;52661;51.364;6.054;2023-06-24T06:36:54;102111.94;;;20.61;100.00
65880;BME280;52661;51.364;6.054;2023-06-24T06:39:19;102118.88;;;20.69;100.00
65880;BME280;52661;51.364;6.054;2023-06-24T06:41:45;102120.28;;;20.77;100.00
65880;BME280;52661;51.364;6.054;2023-06-24T06:44:10;102115.47;;;20.81;100.00
65880;BME280;52661;51.364;6.054;2023-06-24T06:46:35;102117.31;;;20.88;100.00
65880;BME280;52661;51.364;6.054;2023-06-24T06:49:01;102128.78;;;20.86;100.00
65880;BME280;52661;51.364;6.054;2023-06-24T06:51:26;102138.03;;;20.96;100.00
65880;BME280;52661;51.364;6.054;2023-06-24T06:53:51;102125.38;;;20.98;100.00
65880;BME280;52661;51.364;6.054;2023-06-24T06:56:23;102125.44;;;20.95;100.00
65880;BME280;52661;51.364;6.054;2023-06-24T06:58:49;102130.47;;;21.00;100.00
65880;BME280;52661;51.364;6.054;2023-06-24T07:01:15;102133.16;;;21.03;100.00
65880;BME280;52661;51.364;6.054;2023-06-24T07:03:40;102130.28;;;21.10;100.00
65880;BME280;52661;51.364;6.054;2023-06-24T07:06:05;102128.22;;;21.15;100.00
65880;BME280;52661;51.364;6.054;2023-06-24T07:08:31;102136.59;;;21.11;100.00
65880;BME280;52661;51.364;6.054;2023-06-24T07:10:56;102134.38;;;21.22;100.00
65880;BME280;52661;51.364;6.054;2023-06-24T07:13:21;102133.50;;;21.25;100.00
65880;BME280;52661;51.364;6.054;2023-06-24T07:15:47;102143.47;;;21.39;100.00
65880;BME280;52661;51.364;6.054;2023-06-24T07:18:12;102143.13;;;21.37;100.00
65880;BME280;52661;51.364;6.054;2023-06-24T07:20:37;102141.41;;;21.43;100.00
65880;BME280;52661;51.364;6.054;2023-06-24T07:23:02;102147.06;;;21.72;100.00
65880;BME280;52661;51.364;6.054;2023-06-24T07:25:30;102149.78;;;21.91;100.00
65880;BME280;52661;51.364;6.054;2023-06-24T07:27:55;102151.47;;;21.85;100.00
65880;BME280;52661;51.364;6.054;2023-06-24T07:30:21;102143.00;;;21.76;100.00
65880;BME280;52661;51.364;6.054;2023-06-24T07:32:46;102154.69;;;21.84;100.00
65880;BME280;52661;51.364;6.054;2023-06-24T07:35:11;102146.94;;;21.95;100.00
65880;BME280;52661;51.364;6.054;2023-06-24T07:37:38;102145.91;;;22.05;100.00
65880;BME280;52661;51.364;6.054;2023-06-24T07:40:05;102149.34;;;22.09;100.00
65880;BME280;52661;51.364;6.054;2023-06-24T07:42:30;102147.59;;;22.15;100.00
65880;BME280;52661;51.364;6.054;2023-06-24T07:44:56;102153.31;;;22.24;100.00
65880;BME280;52661;51.364;6.054;2023-06-24T07:47:21;102145.34;;;22.26;100.00
65880;BME280;52661;51.364;6.054;2023-06-24T07:49:47;102148.91;;;22.27;100.00
65880;BME280;52661;51.364;6.054;2023-06-24T07:52:12;102146.38;;;22.32;100.00
65880;BME280;52661;51.364;6.054;2023-06-24T07:54:37;102150.69;;;22.33;100.00
65880;BME280;52661;51.364;6.054;2023-06-24T07:57:03;102149.63;;;22.43;100.00
65880;BME280;52661;51.364;6.054;2023-06-24T07:59:28;102149.91;;;22.49;100.00
65880;BME280;52661;51.364;6.054;2023-06-24T08:01:54;102151.63;;;22.43;100.00
65880;BME280;52661;51.364;6.054;2023-06-24T08:04:19;102149.91;;;22.49;100.00
65880;BME280;52661;51.364;6.054;2023-06-24T08:06:45;102158.44;;;22.54;100.00
65880;BME280;52661;51.364;6.054;2023-06-24T08:09:10;102158.53;;;22.51;100.00
65880;BME280;52661;51.364;6.054;2023-06-24T08:11:35;102160.97;;;22.49;99.36
65880;BME280;52661;51.364;6.054;2023-06-24T08:14:01;102155.06;;;22.47;100.00
65880;BME280;52661;51.364;6.054;2023-06-24T08:16:27;102154.78;;;22.57;100.00
65880;BME280;52661;51.364;6.054;2023-06-24T08:18:52;102150.72;;;22.62;100.00
65880;BME280;52661;51.364;6.054;2023-06-24T08:21:18;102161.09;;;22.74;100.00
65880;BME280;52661;51.364;6.054;2023-06-24T08:23:44;102160.31;;;22.74;98.26
65880;BME280;52661;51.364;6.054;2023-06-24T08:26:09;102149.16;;;22.77;96.89
65880;BME280;52661;51.364;6.054;2023-06-24T08:28:35;102148.28;;;22.80;93.83
65880;BME280;52661;51.364;6.054;2023-06-24T08:31:00;102158.38;;;22.87;92.75
65880;BME280;52661;51.364;6.054;2023-06-24T08:33:26;102144.09;;;22.88;92.83
65880;BME280;52661;51.364;6.054;2023-06-24T08:35:51;102145.84;;;22.82;87.33
65880;BME280;52661;51.364;6.054;2023-06-24T08:38:17;102149.38;;;22.83;88.39
65880;BME280;52661;51.364;6.054;2023-06-24T08:40:42;102144.19;;;22.85;88.34
65880;BME280;52661;51.364;6.054;2023-06-24T08:43:09;102139.22;;;22.92;89.10
65880;BME280;52661;51.364;6.054;2023-06-24T08:45:35;102144.66;;;22.96;85.04
65880;BME280;52661;51.364;6.054;2023-06-24T08:48:00;102147.66;;;22.89;79.91
65880;BME280;52661;51.364;6.054;2023-06-24T08:50:33;102139.56;;;22.94;83.49
65880;BME280;52661;51.364;6.054;2023-06-24T08:53:03;102140.78;;;22.93;82.13
65880;BME280;52661;51.364;6.054;2023-06-24T08:55:30;102139.72;;;23.03;81.45
65880;BME280;52661;51.364;6.054;2023-06-24T08:57:57;102147.59;;;23.18;80.08
65880;BME280;52661;51.364;6.054;2023-06-24T09:00:23;102138.72;;;23.23;83.18
65880;BME280;52661;51.364;6.054;2023-06-24T09:02:49;102146.28;;;23.35;78.75
65880;BME280;52661;51.364;6.054;2023-06-24T09:05:14;102136.19;;;23.41;68.56
65880;BME280;52661;51.364;6.054;2023-06-24T09:07:40;102135.63;;;23.33;69.31
65880;BME280;52661;51.364;6.054;2023-06-24T09:10:05;102128.88;;;23.34;70.49
65880;BME280;52661;51.364;6.054;2023-06-24T09:12:32;102129.75;;;23.31;68.32
65880;BME280;52661;51.364;6.054;2023-06-24T09:14:58;102129.66;;;23.35;67.31
65880;BME280;52661;51.364;6.054;2023-06-24T09:17:23;102129.13;;;23.40;67.78
65880;BME280;52661;51.364;6.054;2023-06-24T09:19:50;102128.69;;;23.41;67.52
65880;BME280;52661;51.364;6.054;2023-06-24T09:22:15;102125.69;;;23.48;66.55
65880;BME280;52661;51.364;6.054;2023-06-24T09:24:47;102119.25;;;23.51;67.56
65880;BME280;52661;51.364;6.054;2023-06-24T09:27:14;102133.66;;;23.59;60.83
65880;BME280;52661;51.364;6.054;2023-06-24T09:29:40;102115.16;;;23.56;65.18
65880;BME280;52661;51.364;6.054;2023-06-24T09:32:07;102104.84;;;23.69;68.62
65880;BME280;52661;51.364;6.054;2023-06-24T09:34:33;102113.91;;;23.70;66.35
65880;BME280;52661;51.364;6.054;2023-06-24T09:36:59;102109.50;;;23.72;68.86
65880;BME280;52661;51.364;6.054;2023-06-24T09:39:26;102110.16;;;23.76;67.32
65880;BME280;52661;51.364;6.054;2023-06-24T09:41:59;102110.06;;;23.80;66.58
65880;BME280;52661;51.364;6.054;2023-06-24T09:44:25;102108.81;;;23.81;68.82
65880;BME280;52661;51.364;6.054;2023-06-24T09:46:51;102107.72;;;23.91;70.33
65880;BME280;52661;51.364;6.054;2023-06-24T09:49:17;102110.66;;;24.09;69.32
65880;BME280;52661;51.364;6.054;2023-06-24T09:51:45;102096.44;;;24.20;67.89
65880;BME280;52661;51.364;6.054;2023-06-24T09:54:12;102088.44;;;24.22;62.24
65880;BME280;52661;51.364;6.054;2023-06-24T09:56:40;102105.09;;;24.22;59.60
65880;BME280;52661;51.364;6.054;2023-06-24T09:59:08;102100.09;;;24.17;63.20
65880;BME280;52661;51.364;6.054;2023-06-24T10:01:36;102098.75;;;24.21;64.85
65880;BME280;52661;51.364;6.054;2023-06-24T10:04:04;102094.56;;;24.38;64.05
65880;BME280;52661;51.364;6.054;2023-06-24T10:06:32;102096.59;;;24.38;61.45
65880;BME280;52661;51.364;6.054;2023-06-24T10:08:58;102087.28;;;24.32;57.41
65880;BME280;52661;51.364;6.054;2023-06-24T10:11:24;102082.50;;;24.32;60.44
65880;BME280;52661;51.364;6.054;2023-06-24T10:13:49;102079.44;;;24.30;66.41
65880;BME280;52661;51.364;6.054;2023-06-24T10:16:15;102085.63;;;24.34;61.62
65880;BME280;52661;51.364;6.054;2023-06-24T10:18:41;102076.44;;;24.46;61.37
65880;BME280;52661;51.364;6.054;2023-06-24T10:21:07;102079.44;;;24.52;60.44
65880;BME280;52661;51.364;6.054;2023-06-24T10:26:25;102081.31;;;24.55;61.00
65880;BME280;52661;51.364;6.054;2023-06-24T10:37:09;102070.03;;;24.80;57.60
65880;BME280;52661;51.364;6.054;2023-06-24T10:44:45;102063.06;;;24.97;61.16
65880;BME280;52661;51.364;6.054;2023-06-24T10:47:11;102062.00;;;25.04;57.84
65880;BME280;52661;51.364;6.054;2023-06-24T10:49:36;102065.91;;;25.07;62.73
65880;BME280;52661;51.364;6.054;2023-06-24T10:52:02;102062.34;;;25.06;56.56
65880;BME280;52661;51.364;6.054;2023-06-24T10:54:27;102062.66;;;25.08;56.05
65880;BME280;52661;51.364;6.054;2023-06-24T10:56:53;102060.16;;;25.01;61.38
65880;BME280;52661;51.364;6.054;2023-06-24T10:59:20;102059.69;;;25.03;57.68
65880;BME280;52661;51.364;6.054;2023-06-24T11:01:52;102058.53;;;25.22;53.79
65880;BME280;52661;51.364;6.054;2023-06-24T11:04:18;102054.53;;;25.23;51.27
65880;BME280;52661;51.364;6.054;2023-06-24T11:06:57;102044.81;;;25.27;50.67
65880;BME280;52661;51.364;6.054;2023-06-24T11:09:23;102049.75;;;25.23;53.31
65880;BME280;52661;51.364;6.054;2023-06-24T11:11:48;102044.91;;;25.15;51.91
65880;BME280;52661;51.364;6.054;2023-06-24T11:14:15;102043.38;;;25.14;54.14
65880;BME280;52661;51.364;6.054;2023-06-24T11:16:41;102035.84;;;25.23;52.76
65880;BME280;52661;51.364;6.054;2023-06-24T11:19:06;102040.63;;;25.23;51.34
65880;BME280;52661;51.364;6.054;2023-06-24T11:21:31;102039.75;;;25.35;53.54
65880;BME280;52661;51.364;6.054;2023-06-24T11:24:01;102045.31;;;25.35;49.96
65880;BME280;52661;51.364;6.054;2023-06-24T11:26:27;102043.47;;;25.32;50.01
65880;BME280;52661;51.364;6.054;2023-06-24T11:28:52;102040.53;;;25.44;52.69
65880;BME280;52661;51.364;6.054;2023-06-24T11:31:18;102041.94;;;25.49;50.64
65880;BME280;52661;51.364;6.054;2023-06-24T11:33:48;102028.41;;;25.60;50.47
65880;BME280;52661;51.364;6.054;2023-06-24T11:36:17;102030.41;;;25.60;50.04
65880;BME280;52661;51.364;6.054;2023-06-24T11:38:42;102030.88;;;25.58;49.44
65880;BME280;52661;51.364;6.054;2023-06-24T11:41:08;102024.53;;;25.58;46.06
65880;BME280;52661;51.364;6.054;2023-06-24T11:43:33;102027.63;;;25.69;47.53
65880;BME280;52661;51.364;6.054;2023-06-24T11:45:59;102024.72;;;25.81;42.10
65880;BME280;52661;51.364;6.054;2023-06-24T11:48:30;102018.09;;;25.88;41.30
65880;BME280;52661;51.364;6.054;2023-06-24T11:51:03;102021.81;;;26.03;43.81
65880;BME280;52661;51.364;6.054;2023-06-24T11:53:44;102024.25;;;26.01;42.85
65880;BME280;52661;51.364;6.054;2023-06-24T11:56:13;102008.66;;;25.94;41.75
65880;BME280;52661;51.364;6.054;2023-06-24T11:58:39;102012.69;;;26.03;47.67
65880;BME280;52661;51.364;6.054;2023-06-24T12:01:06;102009.28;;;26.26;46.29
65880;BME280;52661;51.364;6.054;2023-06-24T12:03:32;102014.22;;;26.40;46.92
65880;BME280;52661;51.364;6.054;2023-06-24T12:05:59;102016.50;;;26.51;44.09
65880;BME280;52661;51.364;6.054;2023-06-24T12:08:24;102012.00;;;26.53;45.57
65880;BME280;52661;51.364;6.054;2023-06-24T12:10:50;102004.78;;;26.37;47.75
65880;BME280;52661;51.364;6.054;2023-06-24T12:13:15;102001.81;;;26.41;44.58
65880;BME280;52661;51.364;6.054;2023-06-24T12:15:41;102002.72;;;26.56;45.76
65880;BME280;52661;51.364;6.054;2023-06-24T12:18:06;102011.97;;;26.71;45.82
65880;BME280;52661;51.364;6.054;2023-06-24T12:20:32;102002.03;;;26.79;46.80
65880;BME280;52661;51.364;6.054;2023-06-24T12:22:59;101999.41;;;26.76;44.56
65880;BME280;52661;51.364;6.054;2023-06-24T12:25:25;101994.31;;;26.83;44.59
65880;BME280;52661;51.364;6.054;2023-06-24T12:27:50;101998.44;;;26.97;46.46
65880;BME280;52661;51.364;6.054;2023-06-24T12:30:16;101991.03;;;27.18;52.53
65880;BME280;52661;51.364;6.054;2023-06-24T12:32:42;101992.81;;;27.06;43.59
65880;BME280;52661;51.364;6.054;2023-06-24T12:35:08;101991.63;;;27.22;44.16
65880;BME280;52661;51.364;6.054;2023-06-24T12:37:37;101995.66;;;27.21;42.88
65880;BME280;52661;51.364;6.054;2023-06-24T12:40:03;101984.28;;;27.33;46.59
65880;BME280;52661;51.364;6.054;2023-06-24T12:42:29;101982.88;;;27.38;45.23
65880;BME280;52661;51.364;6.054;2023-06-24T12:44:54;101988.13;;;27.45;43.69
65880;BME280;52661;51.364;6.054;2023-06-24T12:47:20;101983.91;;;27.50;43.35
65880;BME280;52661;51.364;6.054;2023-06-24T12:49:46;101982.97;;;27.53;44.55
65880;BME280;52661;51.364;6.054;2023-06-24T12:52:12;101988.72;;;27.49;42.98
65880;BME280;52661;51.364;6.054;2023-06-24T12:54:38;101988.28;;;27.65;44.15
65880;BME280;52661;51.364;6.054;2023-06-24T12:57:03;101977.31;;;27.62;44.92
65880;BME280;52661;51.364;6.054;2023-06-24T12:59:29;101980.53;;;27.46;45.80
65880;BME280;52661;51.364;6.054;2023-06-24T13:01:54;101977.78;;;27.60;48.92